Hauptseite
METAR-TAF:

METAR-TAF

Flughäfen :

Lechfeld, Deutschland

Fliegerhorst Lechfeld

Breite: 48-11N, Länge: 010-52E, Höhe: 555 m

Beobachtung

Neuester Wetterbericht von vor 1 Stunde und 4 Minuten, um 08:20 UTC
Wind 23 kt aus Südwest, Böen bis zu 38 kt
Temperatur 6°C
Luftfeuchtigkeit 75%
Luftdruck 999 hPa
Sichtweite 10 km oder mehr
Leicht bewölkt in der Höhe von 2000 ft
Aufgelockert bewölkt in der Höhe von 3500 ft

METAR: ETSL 160820Z 23023G38KT 9999 FEW020 SCT035 06/02 Q0999 BLU+

Zeit: 10:24 (09:24 UTC)


TAF: fehlend

Wetterbeobachtungen und Prognosen von mehr als 4000 Flughäfen (METAR und TAF Bericht).

Die verfügbaren Stationen werden durch gelbe und rote Markierungen auf der Karte dargestellt.

Führen Sie die Maus auf sie, um den Namen der Station zu sehen.

Darauf klicken, um die Beobachtung von Wetterbeobachtungen und Prognosen zu sehen.

Um die Karte zu ändern : klicken Sie auf den grünen Tasten mit einem schwarzen Kreuz Zum Vergrößern, auf den grünen Button mit einem Gedankenstrich zu verkleinern, oder auf die grünen Pfeile für benachbarte Karten.


METAR-TAF: